Coral Gables, Florida
Current Conditions -  °F | °C
As of 9:53 PM on Monday 20 Oct 2014 (Local Time) from KMIA Reporting Station
Overcast Overcast  
Wind Chill: 75°   Ceiling: 4600
Heat Index: 75°   Visibility: 10mi
Dew Point: 68°   Wind: 5mph
Humidity: 79%   Direction: 100°E
Pressure: 29.99"   Gusts: NA
Location:  25.75°N, 80.26°W
Report Text: KMIA 210153Z 10004KT 10SM BKN046 BKN065 OVC250 24/20 A2999 RMK AO2 SLP156 T02390200
Loading
Personal Weather Stations






























Interactive Weather Map
Tropical Storm Tracking
New forecast layout! Learn more

10-Day Weather Forecast

Advertisements
Track Severe Weather on mobile